ESNT weather

CLOSED Sättna Airport
Västernorrlands län, Sweden

Public forecast

Using degrees Celsius for public forecast. Weather courtesy of forecast.io.

METAR (pilot weather report)

Closest report is Sundsvall-Härnösand Airport, 12.5 nm (23.2 km) ENE. Retrieved 2019/08/18 05:20 UTC (21 minutes ago):

ESNN 180520Z AUTO 14009KT 9999 OVC008/// 15/15 Q1003

TAF (pilot weather forecast)

Forecast is more than 12 hours old.

Closest forecast is Sundsvall-Härnösand Airport, 12.5 nm (23.2 km) ENE. Retrieved 2016/05/29 09:33 UTC (3 years ago):

TAF TAF ESNN 290830Z 2909/3018 07006KT 9999 SCT045 BECMG 2913/2915 14010KT